Baker City Municipal Airport
KBKE : now visible

Airfield :











YOU CAN JOIN US ON...

 
LOGIN :

Register | Disclaimer

   EN    FR    IT 

 









Legend :    VFR   Marginal VFR   IFR   Intensive IFR   Very Intensive IFR
Visi :
Ceiling :
>= 8 km
>= 3000ft
5 to 8 km
1000 to 3000 ft
1500m to 5 km
500 to 1000 ft
800 to 1500m
200 to 500 ft
< 800m
< 200 ft
Symbols :   Thunderstorms  Fog  Heavy snow  Heavy precipitations  Wind > 20 kt






- Airport Elevation : 3373 ft


KBKE - Baker City Municipal

CURRENT METAR :
  • 031353Z AUTO 00000KT 6SM BR CLR 14/13 A3021 RMK AO2 SLP203 T01390128

EXPIRED METARs :
  • 031253Z AUTO 00000KT 5SM BR CLR 11/11 A3019 RMK AO2 SLP198 T01110106
  • 031153Z AUTO 00000KT 9SM CLR 12/11 A3018 RMK AO2 SLP194 T01220111 10211 20122 53001

TAF KBKE
Valid from the 03 at 12:00 until the 04 at 12:00 UTC


031140Z 0312/0412 VRB06KT 6SM FU SCT120
FM032100 12012G20KT P6SM VCTS BKN080CB
TEMPO 0322/0401 VRB15G30KT
FM040200 VRB05KT P6SM BKN150
KZLC FIR / North America



MET'MAP, your aeronautical weather chart ! - Copyright ORBIFLY December 2007 - Disclaimer

ORBIFLY MET'MAP TEAM :

Programming & Development : Alexandra Zaïnal
Concept & original design : Baudouin d'Aumeries
Assistance for programming : Marc-Olivier Méhu
Technical & hardware support : Manuel Goepfert

Contact : metmap@orbifly.com




SOURCES & CREDITS :

   NOAA       Earth
Advisory